Airfield :
LOGIN :

Register | Disclaimer

   EN    FR    IT 

 










Legend :    VFR   Marginal VFR   IFR   Intensive IFR   Very Intensive IFR
Visi :
Ceiling :
>= 8 km
>= 3000ft
5 to 8 km
1000 to 3000 ft
1500m to 5 km
500 to 1000 ft
800 to 1500m
200 to 500 ft
< 800m
< 200 ft
Symbols :   Thunderstorms  Fog  Heavy snow  Heavy precipitations  Wind > 20 kt
SIGMETs :     Misc.  Thunderstorms  Icing  Turbulence  Mountain Waves  Volcanic Ashes






- Airport Elevation : 228 ft
- IATA code : OPO


LPPR - Porto Fr. Sa Carneiro

CURRENT METAR :
  • 061530Z 31006KT CAVOK 13/10 Q1022

EXPIRED METARs :
  • 061500Z 29004KT CAVOK 15/10 Q1022
  • 061430Z 02003KT 330V040 CAVOK 15/09 Q1022
  • 061400Z 33003KT 310V010 CAVOK 15/09 Q1023
  • 061330Z 33006KT CAVOK 13/09 Q1023
  • 061300Z 01004KT 330V050 CAVOK 14/08 Q1023

TAF TAF LPPR
Valid from the 06 at 12:00 until the 07 at 12:00 UTC


061100Z 0612/0712 VRB03KT CAVOK
BECMG 0612/0615 32008KT
BECMG 0618/0621 VRB03KT 5000 BR FEW005
PROB30
TEMPO 0700/0709 1200 PRFG BKN002
BECMG 0709/0712 09007KT 9999 NSW BKN015



MET'MAP, your aeronautical weather chart ! - Copyright ORBIFLY December 2007 - Disclaimer

ORBIFLY MET'MAP TEAM :

Programming & Development : Alexandra Zaïnal
Concept & original design : Baudouin d'Aumeries
Assistance for programming : Marc-Olivier Méhu
Technical & hardware support : Manuel Goepfert

Contact : metmap@orbifly.com




SOURCES & CREDITS :

   NOAA